Time;durP1;ratioP1;P1;durP2;ratioP2;P2;SDS_P1;SDS_P2;PMS_P1;PMS_P2;Temp;Humidity;BMP_temperature;BMP_pressure;BME280_temperature;BME280_humidity;BME280_pressure;Samples;Min_cycle;Max_cycle;Signal;HPM_P1;HPM_P2
2023/08/13 00:00:33;;;;;;;21.67;19.40;;;;;;;;;;5099678;28;20166;-75
2023/08/13 00:02:58;;;;;;;22.17;19.80;;;;;;;;;;5097529;28;20076;-74
2023/08/13 00:05:24;;;;;;;20.38;18.25;;;;;;;;;;5096658;28;20503;-75
2023/08/13 00:07:49;;;;;;;21.33;19.13;;;;;;;;;;5079970;28;20376;-75
2023/08/13 00:10:15;;;;;;;19.75;18.10;;;;;;;;;;5098021;28;20039;-74
2023/08/13 00:12:40;;;;;;;18.83;17.02;;;;;;;;;;5081632;28;20047;-75
2023/08/13 00:15:07;;;;;;;19.80;18.00;;;;;;;;;;5095805;28;20034;-75
2023/08/13 00:17:34;;;;;;;19.42;17.63;;;;;;;;;;5099907;28;20042;-75
2023/08/13 00:19:59;;;;;;;18.77;17.08;;;;;;;;;;5101798;28;20115;-75
2023/08/13 00:22:25;;;;;;;19.13;17.52;;;;;;;;;;5101573;27;20189;-75
2023/08/13 00:24:55;;;;;;;19.70;18.00;;;;;;;;;;5103474;27;20047;-75
2023/08/13 00:27:20;;;;;;;19.10;17.50;;;;;;;;;;5108021;27;20038;-75
2023/08/13 00:29:46;;;;;;;19.65;17.98;;;;;;;;;;5086530;28;20039;-75
2023/08/13 00:32:12;;;;;;;19.52;17.63;;;;;;;;;;5094071;28;20088;-75
2023/08/13 00:34:39;;;;;;;19.15;17.65;;;;;;;;;;5088013;28;20035;-75
2023/08/13 00:37:04;;;;;;;19.98;18.38;;;;;;;;;;5089519;27;20047;-74
2023/08/13 00:39:30;;;;;;;19.80;17.90;;;;;;;;;;5109938;27;20043;-75
2023/08/13 00:41:56;;;;;;;19.52;17.85;;;;;;;;;;5092306;28;20520;-75
2023/08/13 00:44:22;;;;;;;19.77;17.77;;;;;;;;;;5111894;27;20608;-75
2023/08/13 00:46:48;;;;;;;21.83;19.88;;;;;;;;;;5093761;27;20035;-75
2023/08/13 00:49:14;;;;;;;23.35;21.02;;;;;;;;;;5111494;27;20032;-75
2023/08/13 00:51:40;;;;;;;26.88;21.60;;;;;;;;;;5090201;28;20070;-75
2023/08/13 00:54:08;;;;;;;22.55;20.35;;;;;;;;;;5091185;28;20039;-74
2023/08/13 00:56:35;;;;;;;21.95;19.85;;;;;;;;;;5091594;28;20080;-75
2023/08/13 00:59:01;;;;;;;21.80;19.85;;;;;;;;;;5107851;27;20027;-75
2023/08/13 01:01:27;;;;;;;22.70;19.60;;;;;;;;;;5092366;28;20039;-75
2023/08/13 01:03:52;;;;;;;20.65;18.65;;;;;;;;;;5093672;28;20073;-75
2023/08/13 01:06:24;;;;;;;20.30;18.45;;;;;;;;;;5093503;28;20113;-75
2023/08/13 01:09:02;;;;;;;20.17;18.02;;;;;;;;;;5089260;27;20040;-73
2023/08/13 01:11:43;;;;;;;20.60;18.08;;;;;;;;;;5093333;28;20048;-75
2023/08/13 01:14:20;;;;;;;22.15;19.85;;;;;;;;;;5108251;27;20112;-75
2023/08/13 01:16:48;;;;;;;27.88;21.27;;;;;;;;;;5106161;27;20043;-73
2023/08/13 01:19:14;;;;;;;24.40;22.05;;;;;;;;;;5092965;28;20119;-75
2023/08/13 01:21:40;;;;;;;23.80;21.38;;;;;;;;;;5093331;28;20107;-75
2023/08/13 01:24:06;;;;;;;23.25;20.98;;;;;;;;;;5093559;28;20118;-76
2023/08/13 01:26:49;;;;;;;22.48;20.27;;;;;;;;;;5105936;27;20032;-76
2023/08/13 01:29:20;;;;;;;21.95;19.70;;;;;;;;;;5107298;27;20035;-76
2023/08/13 01:31:50;;;;;;;21.95;19.85;;;;;;;;;;5075753;27;20220;-74
2023/08/13 01:34:17;;;;;;;22.45;20.40;;;;;;;;;;5100731;27;20067;-77
2023/08/13 01:36:45;;;;;;;22.00;20.10;;;;;;;;;;5107043;27;20702;-76
2023/08/13 01:39:11;;;;;;;21.63;19.58;;;;;;;;;;5089336;28;20436;-73
2023/08/13 01:41:54;;;;;;;20.80;19.02;;;;;;;;;;5093703;28;20051;-75
2023/08/13 01:44:20;;;;;;;21.55;19.55;;;;;;;;;;5083839;28;20035;-76
2023/08/13 01:46:46;;;;;;;23.92;21.48;;;;;;;;;;5108051;28;20395;-76
2023/08/13 01:49:12;;;;;;;22.60;20.45;;;;;;;;;;5106726;28;20040;-76
2023/08/13 01:51:37;;;;;;;23.38;20.83;;;;;;;;;;5071440;28;20115;-76
2023/08/13 01:54:03;;;;;;;159.43;25.23;;;;;;;;;;5073429;28;20151;-73
2023/08/13 01:56:29;;;;;;;126.10;25.63;;;;;;;;;;5105230;28;20047;-74
2023/08/13 01:58:54;;;;;;;64.90;23.40;;;;;;;;;;5086779;28;20040;-75
2023/08/13 02:01:20;;;;;;;156.13;27.55;;;;;;;;;;5089962;28;20043;-76
2023/08/13 02:03:46;;;;;;;42.95;23.98;;;;;;;;;;5071301;28;20046;-75
2023/08/13 02:06:11;;;;;;;138.48;27.83;;;;;;;;;;5103039;27;20043;-75
2023/08/13 02:08:37;;;;;;;29.95;24.10;;;;;;;;;;5071870;28;20038;-75
2023/08/13 02:11:03;;;;;;;26.67;23.77;;;;;;;;;;5107422;28;20043;-76
2023/08/13 02:13:28;;;;;;;24.27;21.65;;;;;;;;;;5089571;28;20035;-75
2023/08/13 02:15:54;;;;;;;25.70;22.40;;;;;;;;;;5086816;28;20043;-76
2023/08/13 02:18:20;;;;;;;30.92;23.17;;;;;;;;;;5087089;28;20042;-76
2023/08/13 02:20:47;;;;;;;26.80;22.02;;;;;;;;;;5108134;27;20028;-75
2023/08/13 02:23:13;;;;;;;29.80;23.90;;;;;;;;;;5088445;28;20498;-75
2023/08/13 02:25:38;;;;;;;253.25;26.40;;;;;;;;;;5106326;28;20421;-75
2023/08/13 02:28:04;;;;;;;204.57;29.35;;;;;;;;;;5106785;28;20549;-76
2023/08/13 02:30:30;;;;;;;376.05;32.22;;;;;;;;;;5107114;27;20036;-76
2023/08/13 02:32:55;;;;;;;77.47;26.05;;;;;;;;;;5105286;28;20047;-76
2023/08/13 02:35:22;;;;;;;37.72;27.67;;;;;;;;;;5103185;28;20041;-76
2023/08/13 02:37:47;;;;;;;170.20;31.35;;;;;;;;;;5088993;28;20039;-76
2023/08/13 02:40:13;;;;;;;334.65;31.80;;;;;;;;;;5087029;28;20388;-76
2023/08/13 02:42:39;;;;;;;191.05;30.45;;;;;;;;;;5081260;28;20036;-75
2023/08/13 02:45:04;;;;;;;101.40;28.80;;;;;;;;;;5076466;28;20450;-76
2023/08/13 02:47:30;;;;;;;66.53;27.17;;;;;;;;;;5088528;28;20035;-76
2023/08/13 02:49:56;;;;;;;47.70;26.92;;;;;;;;;;5089787;28;20035;-76
2023/08/13 02:52:22;;;;;;;47.70;26.58;;;;;;;;;;5104667;28;20036;-76
2023/08/13 02:54:47;;;;;;;55.63;27.58;;;;;;;;;;5087194;28;20039;-75
2023/08/13 02:57:13;;;;;;;70.13;30.30;;;;;;;;;;5088993;28;20040;-75
2023/08/13 02:59:38;;;;;;;78.55;29.45;;;;;;;;;;5087961;28;20061;-75
2023/08/13 03:02:04;;;;;;;64.85;30.27;;;;;;;;;;5089199;28;20515;-75
2023/08/13 03:04:29;;;;;;;69.55;30.10;;;;;;;;;;5084031;28;20043;-76
2023/08/13 03:06:55;;;;;;;54.95;29.27;;;;;;;;;;5106898;27;20101;-76
2023/08/13 03:09:22;;;;;;;56.63;30.10;;;;;;;;;;5105715;28;20028;-75
2023/08/13 03:11:48;;;;;;;138.05;30.27;;;;;;;;;;5090359;28;20511;-76
2023/08/13 03:14:15;;;;;;;249.00;31.95;;;;;;;;;;5100774;27;20028;-75
2023/08/13 03:16:40;;;;;;;182.43;29.67;;;;;;;;;;5090045;28;20487;-76
2023/08/13 03:19:06;;;;;;;199.90;30.02;;;;;;;;;;5106316;27;20028;-75
2023/08/13 03:21:32;;;;;;;281.98;29.83;;;;;;;;;;5091460;28;20487;-76
2023/08/13 03:23:58;;;;;;;381.83;33.90;;;;;;;;;;5101587;28;20116;-76
2023/08/13 03:26:23;;;;;;;338.38;31.25;;;;;;;;;;5090038;28;20027;-76
2023/08/13 03:28:50;;;;;;;327.42;29.25;;;;;;;;;;5086925;28;20092;-76
2023/08/13 03:31:19;;;;;;;152.18;26.65;;;;;;;;;;5090032;28;20027;-76
2023/08/13 03:33:58;;;;;;;335.30;27.25;;;;;;;;;;5086514;28;20039;-75
2023/08/13 03:36:25;;;;;;;325.20;26.40;;;;;;;;;;5088283;28;20028;-75
2023/08/13 03:38:51;;;;;;;329.02;26.10;;;;;;;;;;5088242;27;20108;-76
2023/08/13 03:41:16;;;;;;;398.48;28.90;;;;;;;;;;5105960;28;20062;-76
2023/08/13 03:43:42;;;;;;;494.83;32.92;;;;;;;;;;5088773;28;20063;-76
2023/08/13 03:46:07;;;;;;;238.73;24.40;;;;;;;;;;5085766;28;20028;-76
2023/08/13 03:48:33;;;;;;;702.40;36.45;;;;;;;;;;5082402;28;20043;-76
2023/08/13 03:51:04;;;;;;;499.02;31.30;;;;;;;;;;5088700;28;20109;-76
2023/08/13 03:53:30;;;;;;;261.67;27.35;;;;;;;;;;5072172;28;20039;-75
2023/08/13 03:55:56;;;;;;;295.92;26.35;;;;;;;;;;5071248;28;20510;-76
2023/08/13 03:58:22;;;;;;;384.48;29.30;;;;;;;;;;5081726;28;20035;-76
2023/08/13 04:00:48;;;;;;;394.55;30.98;;;;;;;;;;5080225;28;20621;-75
2023/08/13 04:03:13;;;;;;;497.08;34.42;;;;;;;;;;5067873;28;20035;-75
2023/08/13 04:05:39;;;;;;;158.95;26.27;;;;;;;;;;5075953;28;20038;-76
2023/08/13 04:08:05;;;;;;;185.60;26.58;;;;;;;;;;5082038;28;20040;-76
2023/08/13 04:10:30;;;;;;;119.85;26.70;;;;;;;;;;5081423;28;20126;-76
2023/08/13 04:12:56;;;;;;;49.13;24.65;;;;;;;;;;5099253;28;20126;-75
2023/08/13 04:15:23;;;;;;;33.17;24.55;;;;;;;;;;5078186;28;20108;-76
2023/08/13 04:17:49;;;;;;;31.40;23.52;;;;;;;;;;5082391;28;20487;-76
2023/08/13 04:20:16;;;;;;;30.40;23.08;;;;;;;;;;5077663;28;20019;-75
2023/08/13 04:22:41;;;;;;;27.05;23.15;;;;;;;;;;5083691;28;20065;-76
2023/08/13 04:25:07;;;;;;;26.15;22.08;;;;;;;;;;5102399;28;20039;-76
2023/08/13 04:27:33;;;;;;;24.85;22.20;;;;;;;;;;5085438;28;20056;-75
2023/08/13 04:29:59;;;;;;;25.00;22.40;;;;;;;;;;5087307;28;20090;-75
2023/08/13 04:32:25;;;;;;;24.73;21.67;;;;;;;;;;5076743;28;20062;-76
2023/08/13 04:34:52;;;;;;;28.35;22.83;;;;;;;;;;5102600;28;20032;-75
2023/08/13 04:37:18;;;;;;;23.02;20.60;;;;;;;;;;5103245;28;20040;-75
2023/08/13 04:39:44;;;;;;;24.30;21.67;;;;;;;;;;5094867;28;20032;-76
2023/08/13 04:42:10;;;;;;;24.55;22.08;;;;;;;;;;5085825;28;20686;-76
2023/08/13 04:44:36;;;;;;;25.83;22.23;;;;;;;;;;5081527;28;20032;-75
2023/08/13 04:47:02;;;;;;;24.90;21.58;;;;;;;;;;5086676;28;20040;-76
2023/08/13 04:49:28;;;;;;;32.38;23.58;;;;;;;;;;5083351;28;20055;-76
2023/08/13 04:51:53;;;;;;;28.70;22.42;;;;;;;;;;5080834;28;20050;-75
2023/08/13 04:54:20;;;;;;;33.30;25.05;;;;;;;;;;5082254;28;20096;-75
2023/08/13 04:56:45;;;;;;;30.42;24.25;;;;;;;;;;5083368;28;20059;-75
2023/08/13 04:59:11;;;;;;;31.67;23.17;;;;;;;;;;5080611;28;20024;-75
2023/08/13 05:01:38;;;;;;;32.03;24.38;;;;;;;;;;5080536;28;20043;-75
2023/08/13 05:04:03;;;;;;;30.88;25.15;;;;;;;;;;5086502;28;20039;-75
2023/08/13 05:06:33;;;;;;;44.38;27.63;;;;;;;;;;5081073;28;20023;-75
2023/08/13 05:09:00;;;;;;;41.88;28.17;;;;;;;;;;5085629;28;20069;-76
2023/08/13 05:11:26;;;;;;;37.60;27.75;;;;;;;;;;5088910;28;20646;-75
2023/08/13 05:13:52;;;;;;;36.38;26.40;;;;;;;;;;5090823;28;20035;-75
2023/08/13 05:16:19;;;;;;;41.38;28.35;;;;;;;;;;5088876;28;20039;-75
2023/08/13 05:18:46;;;;;;;36.38;27.27;;;;;;;;;;5089787;28;20042;-75
2023/08/13 05:21:14;;;;;;;36.70;25.70;;;;;;;;;;5090439;28;20031;-76
2023/08/13 05:23:39;;;;;;;38.70;26.63;;;;;;;;;;5100183;28;20032;-75
2023/08/13 05:26:06;;;;;;;34.13;26.13;;;;;;;;;;5100300;28;20066;-75
2023/08/13 05:28:32;;;;;;;29.88;24.33;;;;;;;;;;5096107;28;20039;-75
2023/08/13 05:31:02;;;;;;;27.70;23.85;;;;;;;;;;5088442;28;20042;-75
2023/08/13 05:33:28;;;;;;;31.58;24.15;;;;;;;;;;5089551;28;20050;-75
2023/08/13 05:35:54;;;;;;;33.35;25.40;;;;;;;;;;5090102;28;20040;-75
2023/08/13 05:38:20;;;;;;;25.48;22.10;;;;;;;;;;5073032;28;20114;-76
2023/08/13 05:40:47;;;;;;;25.73;23.10;;;;;;;;;;5090164;28;20027;-75
2023/08/13 05:43:13;;;;;;;21.60;19.63;;;;;;;;;;5086081;28;20152;-75
2023/08/13 05:45:40;;;;;;;24.33;21.00;;;;;;;;;;5083504;28;20065;-75
2023/08/13 05:48:06;;;;;;;24.50;21.95;;;;;;;;;;5105390;28;20380;-75
2023/08/13 05:50:32;;;;;;;22.45;20.15;;;;;;;;;;5089771;28;20476;-75
2023/08/13 05:52:58;;;;;;;22.77;20.42;;;;;;;;;;5085796;28;20047;-75
2023/08/13 05:55:23;;;;;;;25.73;20.00;;;;;;;;;;5103868;27;20032;-75
2023/08/13 05:57:49;;;;;;;22.60;20.30;;;;;;;;;;5104787;27;20640;-75
2023/08/13 06:00:15;;;;;;;22.52;20.48;;;;;;;;;;5092720;28;20384;-76
2023/08/13 06:02:41;;;;;;;22.40;20.27;;;;;;;;;;5106268;28;20074;-76
2023/08/13 06:05:06;;;;;;;22.05;19.85;;;;;;;;;;5104392;27;20886;-75
2023/08/13 06:07:33;;;;;;;21.33;19.20;;;;;;;;;;5106209;27;20035;-75
2023/08/13 06:10:00;;;;;;;21.13;19.08;;;;;;;;;;5107584;27;20495;-75
2023/08/13 06:12:25;;;;;;;21.40;19.27;;;;;;;;;;5107543;28;20063;-75
2023/08/13 06:14:51;;;;;;;20.90;18.80;;;;;;;;;;5107694;28;20466;-75
2023/08/13 06:17:17;;;;;;;22.77;18.63;;;;;;;;;;5100348;27;20494;-75
2023/08/13 06:19:42;;;;;;;21.42;19.27;;;;;;;;;;5088728;28;20043;-75
2023/08/13 06:22:08;;;;;;;22.42;20.05;;;;;;;;;;5106484;28;20084;-76
2023/08/13 06:24:34;;;;;;;20.67;18.63;;;;;;;;;;5108164;28;20600;-75
2023/08/13 06:27:00;;;;;;;22.15;20.02;;;;;;;;;;5103505;28;20039;-75
2023/08/13 06:29:25;;;;;;;24.08;21.13;;;;;;;;;;5103632;28;20044;-76
2023/08/13 06:31:51;;;;;;;26.08;21.67;;;;;;;;;;5107374;27;20139;-75
2023/08/13 06:34:16;;;;;;;24.10;20.33;;;;;;;;;;5089269;28;20826;-75
2023/08/13 06:36:42;;;;;;;23.00;20.92;;;;;;;;;;5101302;28;20542;-75
2023/08/13 06:39:08;;;;;;;20.92;19.00;;;;;;;;;;5106852;27;20039;-75
2023/08/13 06:41:33;;;;;;;22.33;20.13;;;;;;;;;;5102821;28;20034;-75
2023/08/13 06:44:03;;;;;;;22.67;20.42;;;;;;;;;;5103321;27;20759;-75
2023/08/13 06:46:29;;;;;;;20.95;18.95;;;;;;;;;;5085725;28;20589;-76
2023/08/13 06:48:54;;;;;;;20.02;18.10;;;;;;;;;;5101405;28;20035;-75
2023/08/13 06:51:20;;;;;;;18.73;17.10;;;;;;;;;;5101502;28;20038;-76
2023/08/13 06:53:45;;;;;;;19.40;17.63;;;;;;;;;;5101844;27;20125;-75
2023/08/13 06:56:11;;;;;;;19.60;17.70;;;;;;;;;;5098811;27;20499;-76
2023/08/13 06:58:36;;;;;;;19.65;17.90;;;;;;;;;;5103517;27;20024;-75
2023/08/13 07:01:03;;;;;;;19.70;18.20;;;;;;;;;;5104277;27;20031;-73
2023/08/13 07:03:28;;;;;;;18.23;16.73;;;;;;;;;;5102982;27;20084;-76
2023/08/13 07:05:54;;;;;;;20.17;18.02;;;;;;;;;;5106085;28;20063;-75
2023/08/13 07:08:21;;;;;;;20.50;18.38;;;;;;;;;;5102254;28;20115;-76
2023/08/13 07:10:46;;;;;;;45.38;20.08;;;;;;;;;;5097237;28;20036;-75
2023/08/13 07:13:12;;;;;;;21.67;18.75;;;;;;;;;;5100236;27;20099;-75
2023/08/13 07:15:38;;;;;;;26.17;17.95;;;;;;;;;;5104084;27;20736;-75
2023/08/13 07:18:04;;;;;;;19.65;17.77;;;;;;;;;;5101912;28;20051;-75
2023/08/13 07:20:29;;;;;;;18.85;17.45;;;;;;;;;;5100827;27;20043;-75
2023/08/13 07:22:58;;;;;;;18.92;17.45;;;;;;;;;;5104385;28;20399;-75
2023/08/13 07:25:24;;;;;;;19.13;17.63;;;;;;;;;;5100934;28;20081;-75
2023/08/13 07:27:49;;;;;;;17.33;16.08;;;;;;;;;;5103566;28;20495;-74
2023/08/13 07:30:16;;;;;;;54.20;18.85;;;;;;;;;;5086526;28;20149;-75
2023/08/13 07:32:42;;;;;;;18.58;17.17;;;;;;;;;;5105648;27;20027;-76
2023/08/13 07:35:08;;;;;;;18.98;17.50;;;;;;;;;;5100603;27;20039;-75
2023/08/13 07:37:34;;;;;;;18.25;16.83;;;;;;;;;;5100818;28;20031;-76
2023/08/13 07:40:00;;;;;;;18.92;17.33;;;;;;;;;;5083588;28;20039;-75
2023/08/13 07:42:25;;;;;;;17.23;15.90;;;;;;;;;;5103400;28;20081;-75
2023/08/13 07:44:51;;;;;;;17.10;15.68;;;;;;;;;;5103729;28;20039;-75
2023/08/13 07:47:19;;;;;;;18.25;16.75;;;;;;;;;;5097845;28;20553;-75
2023/08/13 07:49:44;;;;;;;20.13;18.42;;;;;;;;;;5101900;28;20439;-75
2023/08/13 07:52:10;;;;;;;20.02;18.23;;;;;;;;;;5103612;27;20057;-75
2023/08/13 07:54:36;;;;;;;20.73;18.88;;;;;;;;;;5096381;28;20067;-75
2023/08/13 07:57:04;;;;;;;19.60;17.80;;;;;;;;;;5103731;27;20073;-75
2023/08/13 07:59:29;;;;;;;19.45;17.73;;;;;;;;;;5103122;28;20032;-75
2023/08/13 08:01:55;;;;;;;20.80;18.40;;;;;;;;;;5103334;28;20057;-76
2023/08/13 08:04:21;;;;;;;18.80;17.05;;;;;;;;;;5098664;27;20110;-75
2023/08/13 08:06:46;;;;;;;18.40;16.95;;;;;;;;;;5092455;28;20032;-75
2023/08/13 08:09:12;;;;;;;16.08;14.77;;;;;;;;;;5105602;27;20103;-75
2023/08/13 08:11:37;;;;;;;15.93;14.55;;;;;;;;;;5107429;27;20096;-75
2023/08/13 08:14:03;;;;;;;15.63;14.32;;;;;;;;;;5102062;28;20043;-74
2023/08/13 08:16:28;;;;;;;16.35;15.05;;;;;;;;;;5101308;28;20092;-75
2023/08/13 08:18:54;;;;;;;16.25;15.07;;;;;;;;;;5082373;28;20055;-75
2023/08/13 08:21:19;;;;;;;16.27;15.02;;;;;;;;;;5100489;28;20027;-75
2023/08/13 08:23:45;;;;;;;16.95;15.40;;;;;;;;;;5095057;28;20027;-75
2023/08/13 08:26:11;;;;;;;16.25;15.05;;;;;;;;;;5102897;28;20035;-75
2023/08/13 08:28:36;;;;;;;15.27;14.18;;;;;;;;;;5101752;28;20044;-75
2023/08/13 08:31:02;;;;;;;14.63;13.63;;;;;;;;;;5099499;28;20043;-75
2023/08/13 08:33:27;;;;;;;15.23;14.13;;;;;;;;;;5099142;28;20444;-75
2023/08/13 08:35:53;;;;;;;15.50;14.45;;;;;;;;;;5099544;28;20035;-75
2023/08/13 08:38:18;;;;;;;16.30;15.05;;;;;;;;;;5100714;28;20054;-75
2023/08/13 08:40:48;;;;;;;16.50;15.13;;;;;;;;;;5096948;28;20759;-75
2023/08/13 08:43:16;;;;;;;16.02;14.93;;;;;;;;;;5098444;28;20036;-75
2023/08/13 08:45:43;;;;;;;16.45;15.10;;;;;;;;;;5103649;28;20034;-75
2023/08/13 08:48:10;;;;;;;16.02;14.82;;;;;;;;;;5107155;28;20057;-75
2023/08/13 08:50:36;;;;;;;15.90;14.75;;;;;;;;;;5102668;28;20063;-75
2023/08/13 08:53:03;;;;;;;16.48;15.18;;;;;;;;;;5107619;28;20044;-75
2023/08/13 08:55:29;;;;;;;14.65;13.60;;;;;;;;;;5100752;28;20395;-75
2023/08/13 08:57:54;;;;;;;14.25;13.25;;;;;;;;;;5104389;27;20039;-74
2023/08/13 09:00:20;;;;;;;15.05;13.95;;;;;;;;;;5107727;28;20038;-75
2023/08/13 09:02:46;;;;;;;14.02;13.00;;;;;;;;;;5118258;27;20099;-75
2023/08/13 09:05:11;;;;;;;14.80;13.65;;;;;;;;;;5103630;27;20039;-75
2023/08/13 09:07:42;;;;;;;14.27;13.10;;;;;;;;;;5107939;27;20757;-74
2023/08/13 09:10:09;;;;;;;13.73;12.75;;;;;;;;;;5110783;27;20046;-75
2023/08/13 09:12:36;;;;;;;13.57;12.27;;;;;;;;;;5106801;28;20039;-76
2023/08/13 09:15:19;;;;;;;13.05;12.05;;;;;;;;;;5100435;27;20388;-75
2023/08/13 09:17:45;;;;;;;13.23;12.10;;;;;;;;;;5112021;27;20034;-76
2023/08/13 09:20:17;;;;;;;12.27;11.48;;;;;;;;;;5106648;27;20039;-75
2023/08/13 09:22:45;;;;;;;13.45;12.55;;;;;;;;;;5108393;27;20044;-75
2023/08/13 09:25:12;;;;;;;13.10;11.98;;;;;;;;;;5103054;28;20031;-76
2023/08/13 09:27:38;;;;;;;13.32;12.25;;;;;;;;;;5106106;27;20092;-75
2023/08/13 09:30:04;;;;;;;12.88;11.90;;;;;;;;;;5107123;27;20048;-76
2023/08/13 09:32:31;;;;;;;13.63;12.52;;;;;;;;;;5100398;27;20497;-75
2023/08/13 09:34:57;;;;;;;13.43;12.32;;;;;;;;;;5105141;28;20088;-75
2023/08/13 09:37:24;;;;;;;58.63;15.18;;;;;;;;;;5105911;27;20502;-76
2023/08/13 09:39:50;;;;;;;24.30;12.30;;;;;;;;;;5103313;27;20063;-77
2023/08/13 09:42:18;;;;;;;67.75;16.75;;;;;;;;;;5105110;28;20086;-75
2023/08/13 09:44:44;;;;;;;40.72;13.73;;;;;;;;;;5107672;27;20047;-75
2023/08/13 09:47:12;;;;;;;11.13;10.32;;;;;;;;;;5099044;28;20036;-75
2023/08/13 09:49:40;;;;;;;12.45;11.23;;;;;;;;;;5102169;28;20719;-75
2023/08/13 09:52:08;;;;;;;11.65;10.50;;;;;;;;;;5096321;28;20185;-75
2023/08/13 09:55:09;;;;;;;11.70;10.70;;;;;;;;;;5099748;28;20032;-75
2023/08/13 09:57:37;;;;;;;12.80;11.70;;;;;;;;;;5102135;27;20487;-75
2023/08/13 10:00:03;;;;;;;11.20;10.30;;;;;;;;;;5102755;28;20414;-76
2023/08/13 10:02:31;;;;;;;10.60;9.82;;;;;;;;;;5099551;27;20035;-76
2023/08/13 10:04:58;;;;;;;10.48;9.60;;;;;;;;;;5104121;28;20050;-78
2023/08/13 10:07:24;;;;;;;9.95;9.15;;;;;;;;;;5102475;28;20152;-73
2023/08/13 10:09:51;;;;;;;10.43;9.40;;;;;;;;;;5097843;28;20539;-74
2023/08/13 10:12:17;;;;;;;9.60;8.82;;;;;;;;;;5101612;28;20035;-72
2023/08/13 10:14:43;;;;;;;9.85;9.05;;;;;;;;;;5102132;28;20038;-74
2023/08/13 10:17:08;;;;;;;9.68;9.07;;;;;;;;;;5101469;28;20040;-73
2023/08/13 10:19:38;;;;;;;10.00;9.30;;;;;;;;;;5081457;28;20126;-73
2023/08/13 10:22:03;;;;;;;9.27;8.48;;;;;;;;;;5103217;28;20040;-73
2023/08/13 10:24:30;;;;;;;9.45;8.75;;;;;;;;;;5103428;28;20434;-73
2023/08/13 10:26:58;;;;;;;9.35;8.55;;;;;;;;;;5100701;27;20031;-72
2023/08/13 10:29:24;;;;;;;9.30;8.60;;;;;;;;;;5109915;28;20040;-74
2023/08/13 10:32:01;;;;;;;9.95;9.25;;;;;;;;;;5113291;28;20848;-72
2023/08/13 10:34:47;;;;;;;10.77;9.82;;;;;;;;;;5109615;28;20035;-73
2023/08/13 10:37:16;;;;;;;10.10;9.40;;;;;;;;;;5100870;28;20031;-74
2023/08/13 10:39:42;;;;;;;10.43;9.60;;;;;;;;;;5103978;27;20063;-72
2023/08/13 10:42:26;;;;;;;9.73;9.10;;;;;;;;;;5097224;28;20036;-73
2023/08/13 10:44:53;;;;;;;9.77;8.88;;;;;;;;;;5099315;28;20416;-75
2023/08/13 10:47:18;;;;;;;10.80;9.80;;;;;;;;;;5099795;28;20112;-72
2023/08/13 10:49:44;;;;;;;9.52;8.88;;;;;;;;;;5087631;28;20134;-73
2023/08/13 10:52:13;;;;;;;9.27;8.48;;;;;;;;;;5105581;28;20049;-76
2023/08/13 10:54:39;;;;;;;9.00;8.40;;;;;;;;;;5103045;28;20050;-72
2023/08/13 10:57:05;;;;;;;9.30;8.50;;;;;;;;;;5100893;27;20027;-72
2023/08/13 10:59:33;;;;;;;8.95;8.35;;;;;;;;;;5096593;27;20065;-72
2023/08/13 11:02:14;;;;;;;8.53;7.83;;;;;;;;;;5100584;28;20279;-72
2023/08/13 11:04:42;;;;;;;9.18;8.48;;;;;;;;;;5100817;28;20487;-73
2023/08/13 11:07:09;;;;;;;9.20;8.43;;;;;;;;;;5099911;28;20023;-72
2023/08/13 11:09:35;;;;;;;9.13;8.10;;;;;;;;;;5095653;28;20293;-74
2023/08/13 11:12:01;;;;;;;9.00;8.30;;;;;;;;;;5099374;28;20063;-72
2023/08/13 11:14:28;;;;;;;9.65;8.82;;;;;;;;;;5099798;28;20066;-73
2023/08/13 11:16:53;;;;;;;9.70;9.10;;;;;;;;;;5098267;28;20039;-71
2023/08/13 11:19:19;;;;;;;9.85;9.05;;;;;;;;;;5098121;28;20077;-74
2023/08/13 11:21:46;;;;;;;9.38;8.68;;;;;;;;;;5100604;28;20035;-73
2023/08/13 11:24:12;;;;;;;9.10;8.30;;;;;;;;;;5099731;28;20108;-73
2023/08/13 11:26:39;;;;;;;9.10;8.30;;;;;;;;;;5094943;28;20495;-71
2023/08/13 11:29:05;;;;;;;8.98;8.32;;;;;;;;;;5095799;28;20035;-73
2023/08/13 11:31:34;;;;;;;9.82;9.02;;;;;;;;;;5095656;28;20039;-74
2023/08/13 11:34:00;;;;;;;10.00;9.18;;;;;;;;;;5093530;28;20089;-72
2023/08/13 11:36:26;;;;;;;9.80;9.10;;;;;;;;;;5093970;28;20039;-73
2023/08/13 11:38:52;;;;;;;9.32;8.45;;;;;;;;;;5080872;28;20036;-73
2023/08/13 11:41:20;;;;;;;9.38;8.68;;;;;;;;;;5099574;28;20038;-72
2023/08/13 11:43:53;;;;;;;10.20;9.32;;;;;;;;;;5095464;28;20054;-72
2023/08/13 11:46:19;;;;;;;10.20;9.30;;;;;;;;;;5095877;27;20039;-73
2023/08/13 11:48:45;;;;;;;9.63;9.00;;;;;;;;;;5098429;28;20046;-73
2023/08/13 11:51:13;;;;;;;10.02;9.07;;;;;;;;;;5098948;28;20114;-73
2023/08/13 11:53:43;;;;;;;;;;;;;;;;;;5099016;28;20040;-72
2023/08/13 11:56:11;;;;;;;9.77;8.98;;;;;;;;;;5094609;28;19920;-72
2023/08/13 11:58:37;;;;;;;9.77;9.02;;;;;;;;;;5099580;28;20118;-72
2023/08/13 12:01:03;;;;;;;10.13;9.43;;;;;;;;;;5099094;28;20028;-72
2023/08/13 12:03:40;;;;;;;10.20;9.50;;;;;;;;;;5061018;28;20055;-72
2023/08/13 12:06:06;;;;;;;10.30;9.48;;;;;;;;;;5096562;28;20074;-73
2023/08/13 12:08:31;;;;;;;10.65;9.82;;;;;;;;;;5097848;28;20114;-73
2023/08/13 12:10:57;;;;;;;9.90;9.10;;;;;;;;;;5093824;28;20154;-72
2023/08/13 12:13:30;;;;;;;9.82;9.13;;;;;;;;;;5079243;28;20516;-72
2023/08/13 12:15:56;;;;;;;10.00;9.20;;;;;;;;;;5097656;28;21225;-71
2023/08/13 12:18:22;;;;;;;10.27;9.40;;;;;;;;;;5089886;28;20035;-75
2023/08/13 12:20:47;;;;;;;10.48;9.50;;;;;;;;;;5088197;28;20106;-73
2023/08/13 12:23:13;;;;;;;9.85;9.13;;;;;;;;;;5089174;28;20047;-73
2023/08/13 12:25:39;;;;;;;9.88;9.07;;;;;;;;;;5076560;28;20114;-72
2023/08/13 12:28:05;;;;;;;9.02;8.43;;;;;;;;;;5095326;28;20703;-71
2023/08/13 12:30:30;;;;;;;9.88;9.20;;;;;;;;;;5097257;28;20035;-71
2023/08/13 12:32:56;;;;;;;9.52;8.73;;;;;;;;;;5073676;28;20043;-71
2023/08/13 12:35:22;;;;;;;9.80;9.00;;;;;;;;;;5094427;28;20032;-72
2023/08/13 12:37:48;;;;;;;9.93;9.23;;;;;;;;;;5092776;28;20680;-71
2023/08/13 12:40:15;;;;;;;9.25;8.45;;;;;;;;;;5099292;28;20070;-74
2023/08/13 12:42:41;;;;;;;10.13;9.30;;;;;;;;;;5095792;28;20031;-72
2023/08/13 12:45:07;;;;;;;10.23;9.43;;;;;;;;;;5094454;28;20039;-73
2023/08/13 12:47:37;;;;;;;10.73;9.93;;;;;;;;;;5099482;28;20642;-72
2023/08/13 12:50:03;;;;;;;10.80;9.80;;;;;;;;;;5098620;28;20112;-73
2023/08/13 12:52:29;;;;;;;9.77;9.00;;;;;;;;;;5097047;28;20101;-72
2023/08/13 12:54:54;;;;;;;9.55;8.70;;;;;;;;;;5093098;28;20287;-73
2023/08/13 12:57:20;;;;;;;9.88;9.10;;;;;;;;;;5088747;28;20040;-75
2023/08/13 12:59:46;;;;;;;9.65;8.95;;;;;;;;;;5093096;28;20685;-73
2023/08/13 13:02:12;;;;;;;9.85;9.05;;;;;;;;;;5092947;28;20043;-72
2023/08/13 13:04:38;;;;;;;10.70;9.50;;;;;;;;;;5095142;28;20028;-73
2023/08/13 13:07:04;;;;;;;10.25;9.35;;;;;;;;;;5074441;28;20062;-74
2023/08/13 13:09:29;;;;;;;10.43;9.60;;;;;;;;;;5091050;28;20901;-72
2023/08/13 13:11:55;;;;;;;10.13;9.32;;;;;;;;;;5090402;28;20046;-74
2023/08/13 13:14:22;;;;;;;10.65;9.65;;;;;;;;;;5075660;28;20031;-73
2023/08/13 13:16:48;;;;;;;10.40;9.40;;;;;;;;;;5090713;28;20035;-72
2023/08/13 13:19:15;;;;;;;10.43;9.10;;;;;;;;;;5087966;28;20043;-75
2023/08/13 13:21:41;;;;;;;9.93;9.23;;;;;;;;;;5076415;28;20483;-73
2023/08/13 13:24:07;;;;;;;10.40;9.50;;;;;;;;;;5094356;28;20042;-73
2023/08/13 13:26:32;;;;;;;9.98;9.18;;;;;;;;;;5092172;28;20544;-72
2023/08/13 13:28:58;;;;;;;10.07;9.18;;;;;;;;;;5091243;28;20097;-72
2023/08/13 13:31:24;;;;;;;9.80;9.10;;;;;;;;;;5096260;27;20095;-73
2023/08/13 13:33:50;;;;;;;10.07;9.23;;;;;;;;;;5092594;28;20439;-74
2023/08/13 13:36:16;;;;;;;10.25;9.35;;;;;;;;;;5095115;28;20043;-73
2023/08/13 13:38:42;;;;;;;9.93;9.13;;;;;;;;;;5096745;28;20510;-74
2023/08/13 13:41:08;;;;;;;9.65;8.85;;;;;;;;;;5091607;27;20085;-74
2023/08/13 13:43:33;;;;;;;9.70;8.85;;;;;;;;;;5094869;27;21600;-72
2023/08/13 13:45:59;;;;;;;12.02;9.18;;;;;;;;;;5081958;27;20047;-72
2023/08/13 13:48:25;;;;;;;9.68;8.85;;;;;;;;;;5086425;28;20073;-73
2023/08/13 13:50:51;;;;;;;9.68;8.93;;;;;;;;;;5097241;27;20036;-74
2023/08/13 13:53:17;;;;;;;9.82;9.00;;;;;;;;;;5086916;28;20465;-72
2023/08/13 13:55:42;;;;;;;10.05;9.35;;;;;;;;;;5088124;27;20447;-75
2023/08/13 13:58:08;;;;;;;10.15;9.20;;;;;;;;;;5088868;27;20592;-75
2023/08/13 14:00:35;;;;;;;9.95;9.23;;;;;;;;;;5086083;27;20040;-75
2023/08/13 14:03:01;;;;;;;10.30;9.30;;;;;;;;;;5091205;27;20112;-75
2023/08/13 14:05:28;;;;;;;9.50;8.80;;;;;;;;;;5091376;28;20080;-76
2023/08/13 14:07:53;;;;;;;10.00;9.23;;;;;;;;;;5089434;27;20122;-75
2023/08/13 14:10:19;;;;;;;10.43;9.50;;;;;;;;;;5092725;27;20101;-78
2023/08/13 14:12:45;;;;;;;10.15;9.25;;;;;;;;;;5093353;28;20036;-75
2023/08/13 14:15:10;;;;;;;9.82;9.13;;;;;;;;;;5092994;27;20040;-75
2023/08/13 14:17:36;;;;;;;9.85;9.13;;;;;;;;;;5098327;27;20087;-74